Time;durP1;ratioP1;P1;durP2;ratioP2;P2;SDS_P1;SDS_P2;PMS_P1;PMS_P2;Temp;Humidity;BMP_temperature;BMP_pressure;BME280_temperature;BME280_humidity;BME280_pressure;Samples;Min_cycle;Max_cycle;Signal;HPM_P1;HPM_P2
2021/01/09 00:02:24;;;;;;;2.65;1.30;;;6.70;75.60;;;;;;5092552;28;20035;-62
2021/01/09 00:04:50;;;;;;;2.38;1.05;;;6.70;75.60;;;;;;5093303;28;20067;-62
2021/01/09 00:07:15;;;;;;;1.48;0.95;;;6.70;75.70;;;;;;5093466;28;20116;-62
2021/01/09 00:09:41;;;;;;;3.60;1.38;;;6.70;75.60;;;;;;5092304;28;20475;-63
2021/01/09 00:12:11;;;;;;;1.52;1.10;;;6.70;75.60;;;;;;5093257;28;20076;-62
2021/01/09 00:14:37;;;;;;;4.55;1.35;;;6.60;75.50;;;;;;5092562;28;20115;-63
2021/01/09 00:17:03;;;;;;;2.80;1.20;;;6.60;75.40;;;;;;5093567;28;20027;-62
2021/01/09 00:19:29;;;;;;;3.70;1.58;;;6.50;75.40;;;;;;5093173;28;20036;-62
2021/01/09 00:21:56;;;;;;;3.30;1.15;;;6.50;75.50;;;;;;5092434;28;20016;-63
2021/01/09 00:24:22;;;;;;;5.75;1.23;;;6.50;75.50;;;;;;5092870;28;20075;-63
2021/01/09 00:26:47;;;;;;;2.17;0.93;;;6.50;75.60;;;;;;5093194;28;20044;-62
2021/01/09 00:29:13;;;;;;;3.88;1.20;;;6.40;75.50;;;;;;5092457;28;20038;-63
2021/01/09 00:31:39;;;;;;;6.40;1.20;;;6.50;75.60;;;;;;5092762;28;20035;-63
2021/01/09 00:34:04;;;;;;;3.05;1.38;;;6.40;75.60;;;;;;5093154;28;20097;-63
2021/01/09 00:36:30;;;;;;;2.90;1.30;;;6.40;75.60;;;;;;5092331;28;20043;-62
2021/01/09 00:38:56;;;;;;;5.28;1.60;;;6.40;75.70;;;;;;5092796;28;20139;-62
2021/01/09 00:41:29;;;;;;;1.83;1.20;;;6.40;75.80;;;;;;5092427;28;20036;-62
2021/01/09 00:43:56;;;;;;;0.98;0.88;;;6.40;75.90;;;;;;5092119;28;20089;-62
2021/01/09 00:46:22;;;;;;;1.88;1.20;;;6.40;76.00;;;;;;5092960;28;20055;-62
2021/01/09 00:48:48;;;;;;;3.05;1.02;;;6.40;76.10;;;;;;5092548;28;20077;-63
2021/01/09 00:51:15;;;;;;;3.63;1.38;;;6.30;76.20;;;;;;5091846;28;20032;-62
2021/01/09 00:53:41;;;;;;;2.00;1.02;;;6.30;76.40;;;;;;5092772;28;20036;-62
2021/01/09 00:56:07;;;;;;;2.63;1.17;;;6.30;76.50;;;;;;5092787;28;20391;-62
2021/01/09 00:58:34;;;;;;;4.65;1.45;;;6.20;76.70;;;;;;5092309;28;20032;-62
2021/01/09 01:01:00;;;;;;;2.75;1.17;;;6.20;76.80;;;;;;5091175;28;20029;-62
2021/01/09 01:03:27;;;;;;;2.25;1.17;;;6.20;77.00;;;;;;5092800;28;20114;-62
2021/01/09 01:05:53;;;;;;;4.40;1.42;;;6.20;77.10;;;;;;5092189;28;20047;-64
2021/01/09 01:08:18;;;;;;;4.45;1.10;;;6.10;77.20;;;;;;5092659;28;20467;-63
2021/01/09 01:10:44;;;;;;;3.30;1.23;;;6.10;77.20;;;;;;5092741;28;20036;-63
2021/01/09 01:13:10;;;;;;;5.82;1.02;;;6.20;77.30;;;;;;5092003;28;20024;-63
2021/01/09 01:15:35;;;;;;;4.65;1.30;;;6.20;77.20;;;;;;5092593;28;20047;-63
2021/01/09 01:18:01;;;;;;;4.03;1.27;;;6.10;77.20;;;;;;5091824;28;20028;-62
2021/01/09 01:20:27;;;;;;;1.65;0.90;;;6.10;77.10;;;;;;5092475;28;20047;-62
2021/01/09 01:22:52;;;;;;;4.32;1.10;;;6.20;77.20;;;;;;5092699;28;20401;-62
2021/01/09 01:25:18;;;;;;;2.97;1.20;;;6.20;77.10;;;;;;5091499;28;20099;-62
2021/01/09 01:27:44;;;;;;;1.25;1.00;;;6.20;77.00;;;;;;5098438;28;20471;-62
2021/01/09 01:30:10;;;;;;;1.33;0.80;;;6.30;77.10;;;;;;5092360;28;20027;-62
2021/01/09 01:32:36;;;;;;;4.93;1.20;;;6.20;76.90;;;;;;5095243;28;20480;-62
2021/01/09 01:35:02;;;;;;;2.72;1.10;;;6.30;76.80;;;;;;5110493;28;20016;-62
2021/01/09 01:37:28;;;;;;;2.58;1.02;;;6.30;76.70;;;;;;5098381;28;20028;-62
2021/01/09 01:39:53;;;;;;;3.05;1.30;;;6.30;76.60;;;;;;5103126;28;20035;-63
2021/01/09 01:42:19;;;;;;;1.55;1.15;;;6.30;76.40;;;;;;5092322;28;20059;-63
2021/01/09 01:44:45;;;;;;;1.95;0.90;;;6.40;76.40;;;;;;5092327;28;20036;-62
2021/01/09 01:47:18;;;;;;;1.88;1.10;;;6.40;76.30;;;;;;5104411;28;20083;-63
2021/01/09 01:49:45;;;;;;;1.27;0.90;;;6.40;76.20;;;;;;5106824;28;20036;-62
2021/01/09 01:52:13;;;;;;;5.25;1.10;;;6.40;76.00;;;;;;5092969;28;20032;-63
2021/01/09 01:54:41;;;;;;;1.52;1.20;;;6.40;75.90;;;;;;5095217;28;20369;-63
2021/01/09 01:57:09;;;;;;;4.65;1.00;;;6.40;75.80;;;;;;5096054;28;20032;-62
2021/01/09 01:59:35;;;;;;;1.95;0.73;;;6.30;75.70;;;;;;5095766;28;20039;-62
2021/01/09 02:02:04;;;;;;;0.95;0.82;;;6.30;75.70;;;;;;5095122;28;20456;-62
2021/01/09 02:04:30;;;;;;;1.23;1.00;;;6.30;75.80;;;;;;5110459;28;20113;-62
2021/01/09 02:06:57;;;;;;;2.03;1.13;;;6.30;75.80;;;;;;5109508;28;20024;-62
2021/01/09 02:09:25;;;;;;;1.38;1.23;;;6.30;75.80;;;;;;5095261;28;20024;-63
2021/01/09 02:12:07;;;;;;;2.65;1.33;;;6.20;75.90;;;;;;5095509;28;20020;-63
2021/01/09 02:14:38;;;;;;;5.95;1.20;;;6.20;75.90;;;;;;5094936;28;20035;-62
2021/01/09 02:17:06;;;;;;;3.53;1.75;;;6.20;76.00;;;;;;5095768;28;20107;-62
2021/01/09 02:19:36;;;;;;;2.10;1.40;;;6.20;76.10;;;;;;5095765;28;20030;-62
2021/01/09 02:22:04;;;;;;;3.47;1.35;;;6.20;76.20;;;;;;5094700;28;20098;-62
2021/01/09 02:24:30;;;;;;;2.92;1.30;;;6.20;76.20;;;;;;5095366;28;20174;-62
2021/01/09 02:26:56;;;;;;;2.67;1.30;;;6.10;76.20;;;;;;5095198;28;20110;-62
2021/01/09 02:29:28;;;;;;;1.75;1.25;;;6.10;76.20;;;;;;5094520;28;20473;-62
2021/01/09 02:32:04;;;;;;;1.58;1.30;;;6.10;76.30;;;;;;5095371;28;20032;-62
2021/01/09 02:34:50;;;;;;;2.67;1.23;;;6.10;76.30;;;;;;5095458;28;20036;-62
2021/01/09 02:37:16;;;;;;;2.90;1.10;;;6.00;76.40;;;;;;5097679;28;20035;-62
2021/01/09 02:39:42;;;;;;;1.95;1.10;;;6.10;76.30;;;;;;5105795;28;20169;-62
2021/01/09 02:42:08;;;;;;;2.13;1.17;;;6.10;76.40;;;;;;5095044;28;20055;-63
2021/01/09 02:44:34;;;;;;;3.63;1.52;;;6.10;76.40;;;;;;5094559;28;20056;-62
2021/01/09 02:46:59;;;;;;;3.15;1.58;;;6.10;76.40;;;;;;5094984;28;20494;-62
2021/01/09 02:49:25;;;;;;;3.13;1.38;;;6.10;76.40;;;;;;5094073;28;20118;-63
2021/01/09 02:51:51;;;;;;;1.27;1.00;;;6.10;76.40;;;;;;5095004;28;20036;-62
2021/01/09 02:54:17;;;;;;;1.67;1.02;;;6.00;76.30;;;;;;5094614;28;20048;-62
2021/01/09 02:56:42;;;;;;;1.25;1.15;;;6.00;76.40;;;;;;5094069;28;20414;-62
2021/01/09 02:59:08;;;;;;;3.45;1.65;;;6.00;76.50;;;;;;5094544;28;20036;-63
2021/01/09 03:01:34;;;;;;;3.88;1.48;;;6.00;76.80;;;;;;5093102;28;20039;-62
2021/01/09 03:04:00;;;;;;;2.13;1.30;;;6.00;76.80;;;;;;5093329;28;20080;-62
2021/01/09 03:06:26;;;;;;;2.85;1.52;;;6.00;76.80;;;;;;5094671;28;20059;-62
2021/01/09 03:08:52;;;;;;;2.47;1.45;;;5.90;76.80;;;;;;5094752;28;20024;-63
2021/01/09 03:11:18;;;;;;;2.42;1.38;;;5.90;77.00;;;;;;5093718;28;20036;-62
2021/01/09 03:13:45;;;;;;;1.67;1.38;;;5.90;77.10;;;;;;5094651;28;20080;-62
2021/01/09 03:16:10;;;;;;;2.22;1.20;;;5.90;77.20;;;;;;5094318;28;20028;-62
2021/01/09 03:18:36;;;;;;;3.28;1.17;;;5.90;77.30;;;;;;5093645;28;20096;-62
2021/01/09 03:21:02;;;;;;;3.05;1.25;;;5.80;77.30;;;;;;5094529;28;20024;-62
2021/01/09 03:23:28;;;;;;;1.42;1.00;;;5.80;77.40;;;;;;5093857;28;20395;-62
2021/01/09 03:25:54;;;;;;;3.00;1.40;;;5.80;77.40;;;;;;5093421;28;20040;-62
2021/01/09 03:28:20;;;;;;;1.42;1.05;;;5.80;77.50;;;;;;5094147;28;20024;-62
2021/01/09 03:30:45;;;;;;;1.98;1.30;;;5.80;77.50;;;;;;5094153;28;20040;-62
2021/01/09 03:33:11;;;;;;;7.00;1.33;;;5.80;77.60;;;;;;5093095;28;20070;-62
2021/01/09 03:35:37;;;;;;;2.33;1.33;;;5.80;77.60;;;;;;5093895;28;20032;-62
2021/01/09 03:38:03;;;;;;;2.20;1.30;;;5.80;77.70;;;;;;5104261;28;20066;-62
2021/01/09 03:40:29;;;;;;;0.93;0.75;;;5.80;77.80;;;;;;5097077;28;20031;-62
2021/01/09 03:42:54;;;;;;;4.78;1.15;;;5.70;77.90;;;;;;5093484;28;20044;-62
2021/01/09 03:45:20;;;;;;;1.30;1.20;;;5.70;78.00;;;;;;5093712;28;20024;-62
2021/01/09 03:47:45;;;;;;;3.15;1.30;;;5.70;78.10;;;;;;5093180;28;20043;-62
2021/01/09 03:50:11;;;;;;;2.85;1.45;;;5.70;78.10;;;;;;5093774;28;20032;-63
2021/01/09 03:52:37;;;;;;;3.80;1.40;;;5.70;78.10;;;;;;5093014;28;20028;-62
2021/01/09 03:55:03;;;;;;;4.05;1.52;;;5.70;78.00;;;;;;5093770;28;20036;-62
2021/01/09 03:57:29;;;;;;;2.38;1.35;;;5.70;78.00;;;;;;5093628;28;20021;-63
2021/01/09 03:59:54;;;;;;;1.17;1.15;;;5.70;77.90;;;;;;5093042;28;20482;-62
2021/01/09 04:02:20;;;;;;;6.93;1.50;;;5.80;77.90;;;;;;5093696;28;20494;-62
2021/01/09 04:04:46;;;;;;;2.00;1.17;;;5.70;77.80;;;;;;5099277;28;20039;-62
2021/01/09 04:07:11;;;;;;;1.08;0.90;;;5.70;77.90;;;;;;5100892;28;20032;-62
2021/01/09 04:09:37;;;;;;;1.23;0.90;;;5.70;78.00;;;;;;5093475;28;20421;-62
2021/01/09 04:12:03;;;;;;;4.10;1.45;;;5.70;78.10;;;;;;5093582;28;20026;-62
2021/01/09 04:14:28;;;;;;;2.30;1.40;;;5.70;78.10;;;;;;5092582;28;20035;-63
2021/01/09 04:16:54;;;;;;;0.95;0.90;;;5.70;78.10;;;;;;5092489;28;20078;-62
2021/01/09 04:19:20;;;;;;;1.23;1.13;;;5.70;78.10;;;;;;5093197;28;20495;-63
2021/01/09 04:21:51;;;;;;;4.00;1.70;;;5.70;78.10;;;;;;5092315;28;20115;-62
2021/01/09 04:24:18;;;;;;;1.67;1.40;;;5.70;78.10;;;;;;5092891;28;20043;-63
2021/01/09 04:26:43;;;;;;;1.98;1.50;;;5.70;78.10;;;;;;5093218;28;20074;-62
2021/01/09 04:29:09;;;;;;;2.13;1.50;;;5.70;78.10;;;;;;5092473;28;20035;-62
2021/01/09 04:31:35;;;;;;;4.43;1.52;;;5.70;78.00;;;;;;5092986;28;20032;-62
2021/01/09 04:34:00;;;;;;;1.65;1.30;;;5.70;77.80;;;;;;5093100;28;20024;-62
2021/01/09 04:36:26;;;;;;;6.00;1.10;;;5.70;77.80;;;;;;5092156;28;20023;-62
2021/01/09 04:38:52;;;;;;;1.55;1.10;;;5.70;77.80;;;;;;5093069;28;20028;-62
2021/01/09 04:41:20;;;;;;;1.05;0.90;;;5.70;77.90;;;;;;5092911;28;20399;-62
2021/01/09 04:43:49;;;;;;;1.73;1.00;;;5.70;78.10;;;;;;5092014;28;20048;-62
2021/01/09 04:46:18;;;;;;;1.73;0.75;;;5.60;78.10;;;;;;5092836;28;20030;-62
2021/01/09 04:48:44;;;;;;;3.78;1.80;;;5.60;78.20;;;;;;5092947;28;20032;-62
2021/01/09 04:51:11;;;;;;;2.55;1.40;;;5.60;78.30;;;;;;5091968;28;20024;-62
2021/01/09 04:53:39;;;;;;;1.65;1.00;;;5.60;78.50;;;;;;5093099;28;20036;-62
2021/01/09 04:56:05;;;;;;;5.32;1.40;;;5.50;78.50;;;;;;5091874;28;20460;-62
2021/01/09 04:58:32;;;;;;;0.98;0.90;;;5.50;78.60;;;;;;5092866;28;20043;-62
2021/01/09 05:00:57;;;;;;;2.30;1.50;;;5.50;78.70;;;;;;5091406;28;20115;-62
2021/01/09 05:03:23;;;;;;;1.42;1.20;;;5.50;78.80;;;;;;5097473;28;20130;-62
2021/01/09 05:05:49;;;;;;;3.75;1.40;;;5.40;78.70;;;;;;5092441;28;20408;-62
2021/01/09 05:08:15;;;;;;;2.65;1.60;;;5.50;78.80;;;;;;5092778;28;20031;-62
2021/01/09 05:10:41;;;;;;;5.18;1.58;;;5.40;78.80;;;;;;5091965;28;20438;-62
2021/01/09 05:13:06;;;;;;;3.28;1.80;;;5.40;79.40;;;;;;5092638;28;20111;-62
2021/01/09 05:15:39;;;;;;;3.80;2.03;;;5.50;78.80;;;;;;5092838;28;20052;-62
2021/01/09 05:18:07;;;;;;;4.53;1.48;;;5.50;78.70;;;;;;5106155;28;20035;-62
2021/01/09 05:20:34;;;;;;;4.43;1.80;;;5.50;78.60;;;;;;5092830;28;20032;-62
2021/01/09 05:23:01;;;;;;;2.75;1.50;;;5.60;78.50;;;;;;5092440;28;20047;-62
2021/01/09 05:25:27;;;;;;;2.17;1.60;;;5.60;78.30;;;;;;5091764;28;20044;-63
2021/01/09 05:27:54;;;;;;;10.00;1.65;;;5.60;78.20;;;;;;5094139;28;20070;-62
2021/01/09 05:30:22;;;;;;;5.72;1.90;;;5.70;78.10;;;;;;5096450;28;20065;-62
2021/01/09 05:32:48;;;;;;;2.92;1.52;;;5.70;77.90;;;;;;5095939;28;20047;-62
2021/01/09 05:35:15;;;;;;;6.00;1.60;;;5.70;77.70;;;;;;5096305;28;20032;-62
2021/01/09 05:37:41;;;;;;;4.35;1.80;;;5.80;77.70;;;;;;5096488;28;20035;-63
2021/01/09 05:40:09;;;;;;;2.20;1.60;;;5.80;77.60;;;;;;5095777;28;20031;-62
2021/01/09 05:42:35;;;;;;;4.75;1.50;;;5.80;77.50;;;;;;5096092;28;20064;-62
2021/01/09 05:45:01;;;;;;;2.58;1.63;;;5.80;77.40;;;;;;5096081;28;20063;-62
2021/01/09 05:47:29;;;;;;;2.33;1.50;;;5.80;77.40;;;;;;5095541;28;20416;-63
2021/01/09 05:49:59;;;;;;;2.42;1.80;;;5.80;77.30;;;;;;5096305;28;20036;-62
2021/01/09 05:52:26;;;;;;;4.68;1.77;;;5.80;77.30;;;;;;5095419;28;20024;-62
2021/01/09 05:54:57;;;;;;;2.60;1.50;;;5.80;77.40;;;;;;5096012;28;20467;-63
2021/01/09 05:57:31;;;;;;;3.25;1.60;;;5.70;77.40;;;;;;5094529;28;20032;-63
2021/01/09 06:00:00;;;;;;;2.83;1.60;;;5.70;77.50;;;;;;5095472;28;20051;-62
2021/01/09 06:02:26;;;;;;;2.35;1.38;;;5.60;77.50;;;;;;5095580;28;20036;-62
2021/01/09 06:04:59;;;;;;;1.98;1.17;;;5.60;77.70;;;;;;5102898;28;20034;-63
2021/01/09 06:07:35;;;;;;;2.25;1.52;;;5.60;77.90;;;;;;5101604;28;20036;-63
2021/01/09 06:10:06;;;;;;;3.35;2.03;;;5.50;77.90;;;;;;5095715;28;20173;-62
2021/01/09 06:12:36;;;;;;;2.22;1.52;;;5.50;78.00;;;;;;5095903;28;20028;-62
2021/01/09 06:15:06;;;;;;;3.95;1.85;;;5.50;78.10;;;;;;5095156;28;20024;-62
2021/01/09 06:17:34;;;;;;;4.30;1.95;;;5.50;78.80;;;;;;5095470;28;20532;-62
2021/01/09 06:20:00;;;;;;;7.00;1.67;;;5.50;78.10;;;;;;5095362;28;20119;-62
2021/01/09 06:22:29;;;;;;;4.70;1.73;;;5.50;78.10;;;;;;5094691;28;20123;-62
2021/01/09 06:24:55;;;;;;;2.20;1.40;;;5.50;78.10;;;;;;5095263;28;20044;-63
2021/01/09 06:27:31;;;;;;;3.88;1.65;;;5.50;78.10;;;;;;5094904;28;20051;-62
2021/01/09 06:30:07;;;;;;;1.73;1.20;;;5.50;78.10;;;;;;5095342;28;20067;-62
2021/01/09 06:32:37;;;;;;;2.55;1.80;;;5.50;78.10;;;;;;5095410;28;20055;-62
2021/01/09 06:35:04;;;;;;;1.73;1.33;;;5.50;78.10;;;;;;5094302;28;20020;-62
2021/01/09 06:37:30;;;;;;;3.55;1.63;;;5.50;78.20;;;;;;5095300;28;20036;-62
2021/01/09 06:39:56;;;;;;;1.35;1.15;;;5.40;78.20;;;;;;5094249;28;20788;-62
2021/01/09 06:42:24;;;;;;;3.08;1.48;;;5.40;78.30;;;;;;5094003;28;20035;-63
2021/01/09 06:44:53;;;;;;;4.45;1.90;;;5.40;78.30;;;;;;5094977;28;20040;-62
2021/01/09 06:47:27;;;;;;;2.35;1.63;;;5.30;78.30;;;;;;5094828;28;20070;-62
2021/01/09 06:49:53;;;;;;;2.65;1.60;;;5.40;78.30;;;;;;5108630;28;20140;-62
2021/01/09 06:52:19;;;;;;;5.72;1.55;;;5.40;78.20;;;;;;5109424;28;20052;-62
2021/01/09 06:54:46;;;;;;;3.70;1.45;;;5.40;78.10;;;;;;5095081;28;20495;-62
2021/01/09 06:57:14;;;;;;;3.47;1.48;;;5.40;78.10;;;;;;5094000;28;20028;-63
2021/01/09 06:59:44;;;;;;;1.88;1.35;;;5.40;78.10;;;;;;5109996;28;20092;-62
2021/01/09 07:02:24;;;;;;;2.17;1.42;;;5.30;78.10;;;;;;5107686;28;20061;-63
2021/01/09 07:05:09;;;;;;;2.08;1.40;;;5.40;78.10;;;;;;5104747;28;20114;-63
2021/01/09 07:07:53;;;;;;;3.50;1.42;;;5.30;78.10;;;;;;5105814;28;20081;-62
2021/01/09 07:10:27;;;;;;;2.85;1.75;;;5.30;78.10;;;;;;5109659;28;20576;-62
2021/01/09 07:13:02;;;;;;;;;;;5.30;78.20;;;;;;5106833;28;20498;-63
2021/01/09 07:15:28;;;;;;;5.05;2.10;;;5.30;78.20;;;;;;5110499;28;19915;-62
2021/01/09 07:17:59;;;;;;;3.60;1.77;;;5.30;78.00;;;;;;5105873;28;20100;-62
2021/01/09 07:20:38;;;;;;;3.35;1.63;;;5.40;78.10;;;;;;5112315;28;20477;-62
2021/01/09 07:23:07;;;;;;;1.95;1.40;;;5.40;78.10;;;;;;5111546;28;20059;-62
2021/01/09 07:25:38;;;;;;;7.47;1.70;;;5.40;78.00;;;;;;5112098;28;20043;-62
2021/01/09 07:28:12;;;;;;;4.68;1.92;;;5.40;78.00;;;;;;5112845;28;20027;-62
2021/01/09 07:30:38;;;;;;;3.05;1.30;;;5.40;77.90;;;;;;5113692;28;20386;-62
2021/01/09 07:33:09;;;;;;;2.25;1.40;;;5.50;77.80;;;;;;5108602;28;20028;-61
2021/01/09 07:35:37;;;;;;;6.55;2.33;;;5.50;77.70;;;;;;5108946;28;20106;-62
2021/01/09 07:38:05;;;;;;;10.85;1.65;;;5.50;77.60;;;;;;5111152;28;20441;-62
2021/01/09 07:40:57;;;;;;;5.63;1.80;;;5.50;77.60;;;;;;5110391;28;20035;-61
2021/01/09 07:43:39;;;;;;;2.22;1.23;;;5.50;77.60;;;;;;5112332;28;20112;-61
2021/01/09 07:46:30;;;;;;;7.10;1.35;;;5.50;77.50;;;;;;5109379;28;20484;-61
2021/01/09 07:49:00;;;;;;;5.10;1.48;;;5.50;77.40;;;;;;5112623;28;20481;-61
2021/01/09 07:51:49;;;;;;;2.67;1.38;;;5.50;77.30;;;;;;5110639;28;20030;-62
2021/01/09 07:54:37;;;;;;;5.68;1.40;;;5.50;77.40;;;;;;5109101;27;20097;-69
2021/01/09 07:57:05;;;;;;;5.00;1.35;;;5.40;77.30;;;;;;5111574;28;20106;-61
2021/01/09 07:59:31;;;;;;;1.60;1.02;;;5.40;77.20;;;;;;5110021;28;20016;-61
2021/01/09 08:01:57;;;;;;;3.28;1.27;;;5.40;77.20;;;;;;5110987;28;20101;-61
2021/01/09 08:04:22;;;;;;;5.63;1.30;;;5.40;77.20;;;;;;5112039;28;20036;-61
2021/01/09 08:06:48;;;;;;;3.50;1.10;;;5.30;77.20;;;;;;5112174;28;20075;-63
2021/01/09 08:09:14;;;;;;;1.50;1.10;;;5.30;77.20;;;;;;5109365;28;20034;-62
2021/01/09 08:11:44;;;;;;;2.47;1.10;;;5.30;77.30;;;;;;5109169;28;20039;-63
2021/01/09 08:14:11;;;;;;;1.63;0.90;;;5.30;77.30;;;;;;5107938;28;20055;-62
2021/01/09 08:16:37;;;;;;;4.93;1.30;;;5.30;77.40;;;;;;5109587;28;20031;-63
2021/01/09 08:19:21;;;;;;;1.48;1.13;;;5.30;77.40;;;;;;5112378;28;20094;-62
2021/01/09 08:21:53;;;;;;;4.28;1.35;;;5.30;77.40;;;;;;5109973;28;20068;-64
2021/01/09 08:24:26;;;;;;;5.10;1.48;;;5.30;77.30;;;;;;5112463;28;20043;-62
2021/01/09 08:26:56;;;;;;;2.90;1.52;;;5.30;77.40;;;;;;5107540;28;20016;-63
2021/01/09 08:29:26;;;;;;;3.20;1.52;;;5.30;77.40;;;;;;5110276;28;20050;-62
2021/01/09 08:31:53;;;;;;;1.70;1.23;;;5.30;77.40;;;;;;5110851;28;20011;-62
2021/01/09 08:34:19;;;;;;;5.63;1.15;;;5.40;77.40;;;;;;5109709;28;20125;-62
2021/01/09 08:36:48;;;;;;;2.88;1.20;;;5.40;77.40;;;;;;5112106;28;20019;-62
2021/01/09 08:39:13;;;;;;;3.83;1.25;;;5.40;77.40;;;;;;5105782;28;20092;-62
2021/01/09 08:41:41;;;;;;;7.30;1.52;;;5.40;77.40;;;;;;5111700;28;20063;-62
2021/01/09 08:44:11;;;;;;;4.80;1.40;;;5.40;77.40;;;;;;5109720;28;20036;-62
2021/01/09 08:46:39;;;;;;;2.80;1.35;;;5.40;77.50;;;;;;5111714;28;20483;-63
2021/01/09 08:49:06;;;;;;;3.17;1.60;;;5.50;77.60;;;;;;5111415;28;20124;-63
2021/01/09 08:51:34;;;;;;;9.52;1.58;;;5.40;77.60;;;;;;5112403;28;20023;-62
2021/01/09 08:54:06;;;;;;;3.25;1.30;;;5.50;77.80;;;;;;5111982;28;20494;-62
2021/01/09 08:56:33;;;;;;;5.00;1.50;;;5.50;77.90;;;;;;5111595;28;20111;-62
2021/01/09 08:59:10;;;;;;;3.88;1.60;;;5.50;77.90;;;;;;5110459;28;20028;-60
2021/01/09 09:01:41;;;;;;;2.75;1.70;;;5.50;78.00;;;;;;5107064;28;20503;-60
2021/01/09 09:04:09;;;;;;;5.32;2.83;;;5.50;78.00;;;;;;5108377;28;20132;-61
2021/01/09 09:06:37;;;;;;;3.60;2.40;;;5.60;78.10;;;;;;5107636;28;20039;-62
2021/01/09 09:09:04;;;;;;;6.22;2.90;;;5.60;78.20;;;;;;5114196;28;20027;-62
2021/01/09 09:11:29;;;;;;;3.20;2.10;;;5.60;78.20;;;;;;5111003;28;20024;-62
2021/01/09 09:14:09;;;;;;;5.28;2.22;;;5.60;78.20;;;;;;5115303;28;20486;-62
2021/01/09 09:16:37;;;;;;;5.40;2.53;;;5.60;78.20;;;;;;5112009;28;20024;-62
2021/01/09 09:19:14;;;;;;;4.15;2.03;;;5.60;78.20;;;;;;5114277;27;20051;-62
2021/01/09 09:21:42;;;;;;;5.93;2.10;;;5.60;78.20;;;;;;5111684;28;20031;-62
2021/01/09 09:24:08;;;;;;;8.43;2.38;;;5.60;78.20;;;;;;5114290;28;20038;-62
2021/01/09 09:26:35;;;;;;;9.68;3.08;;;5.60;78.50;;;;;;5114074;28;20526;-62
2021/01/09 09:29:01;;;;;;;9.60;4.15;;;5.70;78.30;;;;;;5115081;28;20035;-62
2021/01/09 09:31:32;;;;;;;6.82;4.10;;;5.70;78.20;;;;;;5114892;28;20019;-62
2021/01/09 09:34:12;;;;;;;12.30;4.63;;;5.70;78.20;;;;;;5113661;28;20046;-62
2021/01/09 09:36:58;;;;;;;10.55;3.78;;;5.70;78.20;;;;;;5113905;28;20032;-62
2021/01/09 09:39:25;;;;;;;8.23;3.28;;;5.70;78.00;;;;;;5113138;28;20035;-62
2021/01/09 09:41:51;;;;;;;11.60;4.70;;;5.70;78.00;;;;;;5115365;28;20031;-62
2021/01/09 09:44:17;;;;;;;9.57;4.53;;;5.70;77.90;;;;;;5109164;28;20031;-62
2021/01/09 09:46:42;;;;;;;11.32;3.85;;;5.70;77.80;;;;;;5114371;28;20023;-62
2021/01/09 09:49:08;;;;;;;3.95;2.55;;;5.70;78.00;;;;;;5113985;28;20031;-62
2021/01/09 09:51:35;;;;;;;5.57;2.60;;;5.70;78.00;;;;;;5114451;28;20532;-61
2021/01/09 09:54:01;;;;;;;3.50;2.25;;;5.70;78.00;;;;;;5114216;28;20032;-61
2021/01/09 09:56:39;;;;;;;5.07;2.95;;;5.70;78.00;;;;;;5112718;28;20024;-60
2021/01/09 09:59:10;;;;;;;4.28;2.20;;;5.80;78.10;;;;;;5111036;28;20030;-60
2021/01/09 10:01:36;;;;;;;4.30;2.42;;;5.80;78.00;;;;;;5113347;28;20421;-60
2021/01/09 10:04:05;;;;;;;3.75;2.38;;;5.80;78.00;;;;;;5113915;28;20027;-60
2021/01/09 10:06:39;;;;;;;3.70;2.20;;;5.90;78.10;;;;;;5109023;28;20058;-62
2021/01/09 10:09:12;;;;;;;;;;;5.90;78.10;;;;;;5113171;28;20073;-64
2021/01/09 10:11:39;;;;;;;4.43;2.50;;;5.90;77.90;;;;;;5111965;28;19911;-61
2021/01/09 10:14:05;;;;;;;7.60;2.65;;;5.90;77.90;;;;;;5111085;28;20592;-62
2021/01/09 10:16:31;;;;;;;8.38;3.10;;;5.90;78.00;;;;;;5111367;28;20051;-61
2021/01/09 10:18:57;;;;;;;7.85;3.05;;;6.00;78.20;;;;;;5113297;28;20031;-62
2021/01/09 10:21:27;;;;;;;7.30;2.65;;;5.90;78.10;;;;;;5112151;28;20028;-64
2021/01/09 10:23:53;;;;;;;6.68;3.08;;;6.00;78.20;;;;;;5113848;28;20035;-62
2021/01/09 10:26:29;;;;;;;9.93;2.47;;;6.00;78.20;;;;;;5109502;28;20054;-62
2021/01/09 10:28:55;;;;;;;8.73;2.58;;;6.00;78.20;;;;;;5112630;28;20036;-61
2021/01/09 10:31:31;;;;;;;12.70;2.70;;;6.00;78.20;;;;;;5111079;28;20035;-62
2021/01/09 10:33:57;;;;;;;6.78;2.45;;;6.10;78.50;;;;;;5109503;28;20028;-62
2021/01/09 10:36:27;;;;;;;11.73;2.25;;;6.10;78.60;;;;;;5112425;28;20024;-62
2021/01/09 10:38:54;;;;;;;5.55;1.90;;;6.10;78.80;;;;;;5111919;28;20032;-62
2021/01/09 10:41:20;;;;;;;5.90;2.35;;;6.10;78.80;;;;;;5111603;28;20100;-63
2021/01/09 10:43:45;;;;;;;3.45;2.20;;;6.20;78.90;;;;;;5113331;28;20039;-62
2021/01/09 10:46:17;;;;;;;2.67;1.77;;;6.20;78.90;;;;;;5112776;28;20467;-62
2021/01/09 10:48:43;;;;;;;2.25;1.80;;;6.20;78.80;;;;;;5100522;28;20027;-62
2021/01/09 10:51:13;;;;;;;5.32;1.75;;;6.20;78.70;;;;;;5111366;28;20023;-63
2021/01/09 10:53:38;;;;;;;4.70;1.90;;;6.30;79.30;;;;;;5113822;28;20050;-63
2021/01/09 10:56:04;;;;;;;3.80;1.83;;;6.30;78.60;;;;;;5110801;28;20471;-63
2021/01/09 10:58:30;;;;;;;12.20;2.30;;;6.40;78.70;;;;;;5113619;28;20040;-63
2021/01/09 11:00:55;;;;;;;9.63;2.90;;;6.40;78.70;;;;;;5111593;28;20024;-63
2021/01/09 11:03:21;;;;;;;8.95;2.55;;;6.40;78.60;;;;;;5105930;28;20122;-63
2021/01/09 11:05:47;;;;;;;5.15;2.40;;;6.40;78.70;;;;;;5106944;28;20024;-62
2021/01/09 11:08:12;;;;;;;4.43;2.50;;;6.40;78.70;;;;;;5100961;28;20067;-63
2021/01/09 11:10:38;;;;;;;8.23;2.58;;;6.40;78.90;;;;;;5111130;28;20023;-63
2021/01/09 11:13:04;;;;;;;6.32;3.15;;;6.50;79.00;;;;;;5103699;28;20012;-62
2021/01/09 11:15:30;;;;;;;7.25;2.90;;;6.40;79.00;;;;;;5105497;28;20053;-62
2021/01/09 11:17:55;;;;;;;7.43;2.38;;;6.40;79.10;;;;;;5104872;28;20031;-62
2021/01/09 11:20:21;;;;;;;8.50;3.38;;;6.50;79.10;;;;;;5109912;28;20102;-62
2021/01/09 11:22:47;;;;;;;4.35;1.92;;;6.50;79.10;;;;;;5111256;28;20698;-62
2021/01/09 11:25:12;;;;;;;2.80;1.80;;;6.50;79.10;;;;;;5109632;28;20055;-62
2021/01/09 11:27:38;;;;;;;6.78;2.20;;;6.50;79.10;;;;;;5108945;28;20024;-62
2021/01/09 11:30:05;;;;;;;2.35;2.00;;;6.50;79.10;;;;;;5108935;28;20027;-62
2021/01/09 11:32:30;;;;;;;6.25;2.28;;;6.50;79.20;;;;;;5111135;28;20406;-62
2021/01/09 11:34:56;;;;;;;5.25;2.40;;;6.50;79.40;;;;;;5110334;28;20035;-62
2021/01/09 11:37:25;;;;;;;8.85;2.58;;;6.50;79.60;;;;;;5107467;28;20027;-62
2021/01/09 11:39:53;;;;;;;6.55;2.33;;;6.60;79.70;;;;;;5110335;28;20471;-63
2021/01/09 11:42:21;;;;;;;6.53;2.42;;;6.60;79.80;;;;;;5108294;28;20028;-62
2021/01/09 11:44:47;;;;;;;5.22;1.90;;;6.60;79.60;;;;;;5101269;28;20032;-62
2021/01/09 11:47:13;;;;;;;6.32;2.15;;;6.60;79.50;;;;;;5108208;28;20027;-61
2021/01/09 11:49:39;;;;;;;7.00;2.20;;;6.60;79.30;;;;;;5112246;28;20023;-62
2021/01/09 11:52:05;;;;;;;10.25;2.28;;;6.60;79.30;;;;;;5108910;28;20526;-63
2021/01/09 11:54:30;;;;;;;6.53;2.72;;;6.60;79.30;;;;;;5110080;28;20394;-62
2021/01/09 11:56:56;;;;;;;4.88;2.17;;;6.70;79.50;;;;;;5109389;28;20379;-62
2021/01/09 11:59:22;;;;;;;6.43;2.72;;;6.70;79.40;;;;;;5105458;28;20039;-62
2021/01/09 12:01:48;;;;;;;4.18;2.60;;;6.70;79.50;;;;;;5110300;28;20031;-62
2021/01/09 12:04:14;;;;;;;8.80;2.50;;;6.80;79.70;;;;;;5110236;28;20047;-62
2021/01/09 12:06:39;;;;;;;6.20;3.05;;;6.80;79.80;;;;;;5111049;28;20027;-62
2021/01/09 12:09:05;;;;;;;6.28;2.63;;;6.90;79.80;;;;;;5112030;28;20032;-62
2021/01/09 12:11:34;;;;;;;4.15;2.50;;;6.90;79.70;;;;;;5107109;28;20027;-62
2021/01/09 12:14:00;;;;;;;5.50;3.13;;;7.00;79.80;;;;;;5109138;28;20053;-62
2021/01/09 12:16:30;;;;;;;6.03;2.42;;;7.10;79.90;;;;;;5108568;28;20028;-61
2021/01/09 12:18:56;;;;;;;6.75;2.60;;;7.10;79.90;;;;;;5110706;28;20135;-62
2021/01/09 12:21:22;;;;;;;2.65;1.88;;;7.20;79.90;;;;;;5109801;28;20031;-64
2021/01/09 12:23:48;;;;;;;3.33;2.30;;;7.20;79.80;;;;;;5111582;28;20047;-63
2021/01/09 12:26:20;;;;;;;8.77;2.03;;;7.20;79.80;;;;;;5109938;28;20088;-62
2021/01/09 12:28:46;;;;;;;4.65;1.50;;;7.20;79.90;;;;;;5106435;28;20050;-61
2021/01/09 12:31:12;;;;;;;8.43;2.38;;;7.30;79.70;;;;;;5104858;28;20466;-61
2021/01/09 12:33:39;;;;;;;5.63;1.77;;;7.30;79.60;;;;;;5105594;28;20423;-62
2021/01/09 12:36:06;;;;;;;6.38;1.50;;;7.40;79.80;;;;;;5098181;28;20391;-61
2021/01/09 12:38:31;;;;;;;3.10;1.95;;;7.50;79.90;;;;;;5097365;28;20088;-60
2021/01/09 12:40:57;;;;;;;6.20;2.00;;;7.50;79.80;;;;;;5107026;28;20035;-70
2021/01/09 12:43:23;;;;;;;5.68;2.22;;;7.60;79.80;;;;;;5110233;28;20092;-68
2021/01/09 12:45:48;;;;;;;3.38;1.70;;;7.60;79.80;;;;;;5109155;28;20119;-65
2021/01/09 12:48:14;;;;;;;2.45;1.60;;;7.70;79.80;;;;;;5110978;28;20059;-61
2021/01/09 12:50:43;;;;;;;4.65;2.10;;;7.70;79.60;;;;;;5112494;28;20028;-60
2021/01/09 12:53:08;;;;;;;2.92;1.60;;;7.80;79.80;;;;;;5109921;28;20039;-60
2021/01/09 12:55:36;;;;;;;8.27;2.00;;;7.80;79.50;;;;;;5109253;28;20024;-60
2021/01/09 12:58:02;;;;;;;4.80;1.63;;;7.90;79.40;;;;;;5108970;28;20023;-60
2021/01/09 13:00:27;;;;;;;2.63;1.58;;;7.90;79.40;;;;;;5110450;28;20024;-60
2021/01/09 13:02:53;;;;;;;9.15;1.70;;;7.90;79.30;;;;;;5109382;28;20027;-60